createdAt,value
2018-07-06T00:00:41.562Z,83.79
2018-07-06T00:03:28.148Z,84.40
2018-07-06T00:06:14.769Z,84.48
2018-07-06T00:09:01.395Z,82.53
2018-07-06T00:11:47.843Z,82.10
2018-07-06T00:14:28.356Z,82.80
2018-07-06T00:17:14.762Z,82.64
2018-07-06T00:20:01.462Z,83.91
2018-07-06T00:22:47.938Z,83.59
2018-07-06T00:25:34.366Z,84.06
2018-07-06T00:28:20.695Z,84.40
2018-07-06T00:31:06.908Z,82.07
2018-07-06T00:33:53.367Z,83.58
2018-07-06T00:36:39.821Z,85.54
2018-07-06T00:39:26.161Z,85.48
2018-07-06T00:42:12.528Z,84.98
2018-07-06T00:44:59.159Z,84.55
2018-07-06T00:47:45.568Z,83.20
2018-07-06T00:50:31.868Z,83.04
2018-07-06T00:53:18.234Z,83.66
2018-07-06T00:56:04.577Z,82.10
2018-07-06T00:58:50.846Z,83.13
2018-07-06T01:01:37.361Z,83.33
2018-07-06T01:04:23.622Z,83.84
2018-07-06T01:07:09.951Z,83.93
2018-07-06T01:09:56.654Z,82.56
2018-07-06T01:12:48.459Z,83.18
2018-07-06T01:15:35.146Z,82.37
2018-07-06T01:18:21.764Z,82.77
2018-07-06T01:21:08.243Z,81.38
2018-07-06T01:23:55.079Z,80.37
2018-07-06T01:26:41.487Z,82.52
2018-07-06T01:29:27.936Z,82.61
2018-07-06T01:32:14.468Z,81.57
2018-07-06T01:35:01.079Z,81.34
2018-07-06T01:37:47.674Z,82.04
2018-07-06T01:40:34.241Z,81.34
2018-07-06T01:43:20.333Z,82.16
2018-07-06T01:46:06.788Z,82.80
2018-07-06T01:48:53.100Z,83.46
2018-07-06T01:51:39.583Z,82.11
2018-07-06T01:54:25.995Z,81.91
2018-07-06T01:57:12.497Z,81.96
2018-07-06T01:59:59.060Z,81.77
2018-07-06T02:02:45.559Z,81.78
2018-07-06T02:05:31.964Z,81.73
2018-07-06T02:08:18.309Z,82.06
2018-07-06T02:11:04.721Z,81.64
2018-07-06T02:13:51.265Z,81.43
2018-07-06T02:16:37.660Z,81.53
2018-07-06T02:19:23.880Z,80.70
2018-07-06T02:22:10.357Z,80.40
2018-07-06T02:24:56.635Z,81.13
2018-07-06T02:27:43.150Z,80.56
2018-07-06T02:30:29.685Z,81.02
2018-07-06T02:33:10.312Z,80.11
2018-07-06T02:35:56.663Z,80.72
2018-07-06T02:54:39.405Z,82.84
2018-07-06T02:57:25.730Z,82.57
2018-07-06T03:00:12.094Z,82.33
2018-07-06T03:02:58.413Z,82.97
2018-07-06T03:05:44.839Z,83.42
2018-07-06T03:08:31.152Z,83.17
2018-07-06T03:11:17.358Z,83.78
2018-07-06T03:14:03.533Z,83.82
2018-07-06T03:16:50.013Z,82.81
2018-07-06T03:19:36.418Z,82.91
2018-07-06T03:22:22.834Z,82.84
2018-07-06T03:25:08.910Z,83.23
2018-07-06T03:27:55.601Z,83.92
2018-07-06T03:30:41.689Z,83.33
2018-07-06T03:33:27.911Z,82.56
2018-07-06T03:36:14.325Z,83.37
2018-07-06T03:39:00.697Z,82.91
2018-07-06T03:41:47.175Z,84.55
2018-07-06T03:44:33.508Z,84.90
2018-07-06T03:47:19.884Z,84.67
2018-07-06T03:50:00.171Z,83.65
2018-07-06T03:52:46.704Z,84.01
2018-07-06T03:55:33.332Z,83.85
2018-07-06T03:58:19.564Z,84.20
2018-07-06T04:01:06.073Z,84.18
2018-07-06T04:03:52.394Z,84.02
2018-07-06T04:06:38.707Z,84.42
2018-07-06T04:09:24.872Z,83.36
2018-07-06T04:12:11.157Z,84.85
2018-07-06T04:14:57.767Z,85.07
2018-07-06T04:17:44.125Z,84.45
2018-07-06T04:20:30.558Z,85.16
2018-07-06T04:23:17.010Z,84.60
2018-07-06T04:26:03.385Z,84.44
2018-07-06T04:28:49.744Z,85.33
2018-07-06T04:31:36.332Z,84.34
2018-07-06T04:34:22.852Z,82.45
2018-07-06T04:37:09.492Z,82.21
2018-07-06T04:39:55.688Z,83.82
2018-07-06T04:42:42.021Z,84.82
2018-07-06T04:45:28.105Z,84.33
2018-07-06T04:48:14.552Z,83.80
2018-07-06T04:51:01.173Z,83.16
2018-07-06T04:53:47.673Z,83.40
2018-07-06T04:56:33.967Z,83.34
2018-07-06T04:59:20.281Z,84.00
2018-07-06T05:02:06.516Z,83.45
2018-07-06T05:04:52.945Z,81.83
2018-07-06T05:23:24.942Z,84.78
2018-07-06T05:26:11.432Z,85.25
2018-07-06T05:28:57.858Z,84.29
2018-07-06T05:31:44.203Z,84.50
2018-07-06T05:34:30.579Z,83.26
2018-07-06T05:37:17.008Z,84.68
2018-07-06T05:40:03.476Z,83.91
2018-07-06T05:42:49.592Z,83.51
2018-07-06T05:45:35.868Z,83.66
2018-07-06T05:48:22.324Z,82.37
2018-07-06T05:51:08.828Z,82.78
2018-07-06T05:53:55.360Z,82.83
2018-07-06T05:56:41.725Z,82.79
2018-07-06T05:59:28.311Z,81.16
2018-07-06T06:02:14.771Z,79.01
2018-07-06T06:05:01.104Z,80.28
2018-07-06T06:07:29.284Z,81.89
2018-07-06T06:09:58.842Z,80.99
2018-07-06T06:12:28.813Z,79.81
2018-07-06T06:14:58.524Z,79.92
2018-07-06T06:17:28.711Z,78.60
2018-07-06T06:19:58.532Z,79.66
2018-07-06T06:22:28.210Z,78.40
2018-07-06T06:24:57.847Z,79.23
2018-07-06T06:27:27.451Z,79.45
2018-07-06T06:29:57.151Z,79.96
2018-07-06T06:32:26.751Z,80.40
2018-07-06T06:34:56.494Z,81.11
2018-07-06T06:37:32.173Z,81.07
2018-07-06T06:40:01.936Z,82.05
2018-07-06T06:42:31.730Z,82.87
2018-07-06T06:45:02.862Z,82.32
2018-07-06T06:47:32.536Z,82.13
2018-07-06T06:50:02.641Z,82.26
2018-07-06T06:52:32.359Z,83.08
2018-07-06T06:55:02.000Z,82.99
2018-07-06T06:57:31.635Z,82.39
2018-07-06T07:00:01.537Z,82.60
2018-07-06T07:02:31.219Z,82.11
2018-07-06T07:05:01.102Z,83.11
2018-07-06T07:07:31.126Z,82.67
2018-07-06T07:10:01.143Z,81.09
2018-07-06T07:12:31.114Z,80.98
2018-07-06T07:15:00.909Z,80.39
2018-07-06T07:17:30.644Z,80.57
2018-07-06T07:20:01.098Z,81.19
2018-07-06T07:22:30.683Z,82.22
2018-07-06T07:25:00.420Z,81.23
2018-07-06T07:27:30.177Z,80.60
2018-07-06T07:30:00.429Z,81.78
2018-07-06T07:32:30.163Z,79.00
2018-07-06T07:34:59.956Z,80.66
2018-07-06T07:37:29.642Z,79.68
2018-07-06T07:39:59.614Z,78.74
2018-07-06T07:42:29.409Z,79.52
2018-07-06T07:44:59.064Z,77.55
2018-07-06T07:47:28.708Z,78.43
2018-07-06T07:49:58.326Z,77.77
2018-07-06T07:52:45.004Z,77.65
2018-07-06T07:55:14.685Z,76.86
2018-07-06T07:57:44.642Z,75.15
2018-07-06T08:00:16.547Z,75.10
2018-07-06T08:02:46.332Z,75.95
2018-07-06T08:05:16.104Z,74.07
2018-07-06T08:07:45.845Z,74.67
2018-07-06T08:10:15.566Z,74.72
2018-07-06T08:12:45.327Z,74.26
2018-07-06T08:15:15.283Z,75.23
2018-07-06T08:17:44.991Z,75.44
2018-07-06T08:20:14.696Z,75.40
2018-07-06T08:22:44.376Z,74.07
2018-07-06T08:25:13.944Z,74.19
2018-07-06T08:27:43.664Z,74.52
2018-07-06T08:30:13.342Z,76.03
2018-07-06T08:32:42.986Z,75.94
2018-07-06T08:35:29.454Z,76.52
2018-07-06T08:38:02.837Z,76.15
2018-07-06T08:40:32.490Z,76.93
2018-07-06T08:43:03.559Z,75.63
2018-07-06T08:45:34.026Z,74.42
2018-07-06T08:48:03.814Z,73.79
2018-07-06T08:50:33.457Z,71.59
2018-07-06T08:53:03.159Z,69.93
2018-07-06T08:55:32.962Z,67.53
2018-07-06T08:58:02.648Z,65.70
2018-07-06T09:00:32.298Z,62.76
2018-07-06T09:03:02.112Z,64.01
2018-07-06T09:05:31.768Z,60.76
2018-07-06T09:08:01.622Z,62.64
2018-07-06T09:10:31.337Z,63.75
2018-07-06T09:13:01.353Z,63.26
2018-07-06T09:15:30.981Z,61.89
2018-07-06T09:18:00.873Z,61.83
2018-07-06T09:20:30.542Z,61.19
2018-07-06T09:23:00.250Z,58.01
2018-07-06T09:25:29.967Z,54.73
2018-07-06T09:27:59.582Z,57.45
2018-07-06T09:30:29.181Z,57.62
2018-07-06T09:32:58.770Z,55.28
2018-07-06T09:35:28.420Z,54.13
2018-07-06T09:37:58.055Z,55.19
2018-07-06T09:40:27.693Z,54.90
2018-07-06T09:42:57.359Z,50.98
2018-07-06T09:45:27.159Z,47.07
2018-07-06T09:47:57.631Z,48.30
2018-07-06T09:50:27.423Z,49.38
2018-07-06T09:52:57.712Z,49.11
2018-07-06T09:55:27.155Z,52.66
2018-07-06T09:57:56.818Z,48.30
2018-07-06T10:00:38.213Z,54.86
2018-07-06T10:03:08.070Z,54.10
2018-07-06T10:05:37.610Z,53.67
2018-07-06T10:08:07.276Z,49.84
2018-07-06T10:10:37.879Z,51.96
2018-07-06T10:13:07.539Z,52.67
2018-07-06T10:15:37.100Z,47.84
2018-07-06T10:18:13.554Z,53.77
2018-07-06T10:20:43.301Z,48.16
2018-07-06T10:23:12.961Z,49.25
2018-07-06T10:25:42.681Z,46.06
2018-07-06T10:29:32.380Z,50.67
2018-07-06T10:32:18.183Z,51.38
2018-07-06T10:34:47.799Z,49.83
2018-07-06T10:37:18.085Z,45.18
2018-07-06T10:39:48.513Z,48.74
2018-07-06T10:42:18.071Z,45.21
2018-07-06T10:44:47.840Z,47.22
2018-07-06T10:47:17.453Z,46.22
2018-07-06T10:49:47.141Z,46.03
2018-07-06T10:52:17.379Z,46.16
2018-07-06T10:54:47.261Z,47.29
2018-07-06T10:57:17.011Z,44.27
2018-07-06T10:59:46.654Z,44.82
2018-07-06T11:02:16.268Z,45.13
2018-07-06T11:04:46.024Z,43.71
2018-07-06T11:07:15.736Z,43.87
2018-07-06T11:09:45.364Z,45.18
2018-07-06T11:12:15.060Z,44.08
2018-07-06T11:14:44.667Z,44.95
2018-07-06T11:17:14.381Z,44.29
2018-07-06T11:19:44.028Z,44.57
2018-07-06T11:22:13.737Z,43.97
2018-07-06T11:24:43.343Z,44.22
2018-07-06T11:27:12.965Z,43.00
2018-07-06T11:29:42.615Z,42.70
2018-07-06T11:32:12.338Z,40.85
2018-07-06T11:34:41.961Z,44.46
2018-07-06T11:37:11.310Z,43.19
2018-07-06T11:39:40.964Z,42.47
2018-07-06T11:42:10.552Z,41.74
2018-07-06T11:44:40.212Z,43.30
2018-07-06T11:47:09.781Z,41.88
2018-07-06T11:49:39.489Z,40.77
2018-07-06T11:52:09.196Z,40.84
2018-07-06T11:54:39.776Z,41.63
2018-07-06T11:57:09.453Z,41.44
2018-07-06T11:59:39.109Z,42.30
2018-07-06T12:02:08.965Z,41.78
2018-07-06T12:04:38.789Z,40.02
2018-07-06T12:07:08.271Z,41.51
2018-07-06T12:09:37.986Z,41.13
2018-07-06T12:12:07.641Z,40.00
2018-07-06T12:14:37.304Z,40.96
2018-07-06T12:17:07.206Z,41.42
2018-07-06T12:19:37.082Z,39.76
2018-07-06T12:22:07.272Z,38.79
2018-07-06T12:24:36.858Z,39.83
2018-07-06T12:27:07.032Z,41.35
2018-07-06T12:29:36.753Z,39.23
2018-07-06T12:32:13.230Z,41.21
2018-07-06T12:34:43.044Z,40.93
2018-07-06T12:37:12.697Z,39.97
2018-07-06T12:39:42.541Z,39.29
2018-07-06T12:42:12.604Z,39.17
2018-07-06T12:44:42.199Z,40.23
2018-07-06T12:47:11.928Z,39.10
2018-07-06T12:49:41.505Z,39.94
2018-07-06T12:52:11.129Z,38.93
2018-07-06T12:54:40.771Z,36.50
2018-07-06T12:57:10.255Z,37.87
2018-07-06T12:59:39.937Z,38.25
2018-07-06T13:02:09.781Z,38.70
2018-07-06T13:04:39.567Z,38.19
2018-07-06T13:07:09.197Z,37.84
2018-07-06T13:09:38.806Z,39.19
2018-07-06T13:12:08.562Z,37.45
2018-07-06T13:14:38.324Z,36.71
2018-07-06T13:17:08.130Z,38.47
2018-07-06T13:19:37.748Z,36.10
2018-07-06T13:22:09.691Z,36.01
2018-07-06T13:24:39.362Z,35.34
2018-07-06T13:27:09.164Z,35.54
2018-07-06T13:29:38.812Z,35.08
2018-07-06T13:32:09.012Z,35.54
2018-07-06T13:34:38.945Z,34.39
2018-07-06T13:37:08.775Z,34.26
2018-07-06T13:39:38.448Z,34.20
2018-07-06T13:42:08.319Z,32.76
2018-07-06T13:44:38.044Z,32.04
2018-07-06T13:47:07.926Z,34.19
2018-07-06T13:49:37.603Z,33.61
2018-07-06T13:52:07.336Z,32.89
2018-07-06T13:54:37.202Z,33.57
2018-07-06T13:57:06.927Z,31.86
2018-07-06T13:59:36.796Z,32.42
2018-07-06T14:02:06.605Z,31.59
2018-07-06T14:04:36.365Z,31.65
2018-07-06T14:07:06.313Z,32.18
2018-07-06T14:09:35.924Z,31.28
2018-07-06T14:12:05.863Z,31.65
2018-07-06T14:14:35.608Z,30.46
2018-07-06T14:17:05.265Z,29.13
2018-07-06T14:19:34.903Z,29.79
2018-07-06T14:22:07.561Z,31.01
2018-07-06T14:24:37.279Z,29.33
2018-07-06T14:27:07.403Z,29.69
2018-07-06T14:29:37.147Z,29.57
2018-07-06T14:32:06.826Z,30.29
2018-07-06T14:34:36.576Z,29.11
2018-07-06T14:37:06.239Z,29.85
2018-07-06T14:39:35.860Z,29.37
2018-07-06T14:42:05.600Z,29.02
2018-07-06T14:44:35.224Z,27.50
2018-07-06T14:47:04.974Z,28.44
2018-07-06T14:49:34.621Z,27.28
2018-07-06T14:52:04.261Z,28.51
2018-07-06T14:54:33.985Z,28.15
2018-07-06T14:57:03.759Z,27.48
2018-07-06T14:59:33.796Z,26.63
2018-07-06T15:02:03.578Z,27.44
2018-07-06T15:04:33.261Z,26.43
2018-07-06T15:07:03.238Z,28.03
2018-07-06T15:09:32.856Z,28.01
2018-07-06T15:12:02.583Z,26.86
2018-07-06T15:14:32.225Z,25.90
2018-07-06T15:17:01.857Z,24.95
2018-07-06T15:19:31.432Z,25.44
2018-07-06T15:22:01.076Z,25.94
2018-07-06T15:24:30.730Z,25.09
2018-07-06T15:27:00.315Z,24.73
2018-07-06T15:29:29.950Z,25.11
2018-07-06T15:31:59.660Z,25.29
2018-07-06T15:34:30.072Z,26.35
2018-07-06T15:36:59.999Z,25.45
2018-07-06T15:39:29.631Z,26.77
2018-07-06T15:41:59.292Z,27.40
2018-07-06T15:44:29.141Z,27.45
2018-07-06T15:46:58.789Z,26.94
2018-07-06T15:49:28.453Z,27.48
2018-07-06T15:51:58.061Z,26.71
2018-07-06T15:54:27.956Z,26.68
2018-07-06T15:56:57.546Z,26.25
2018-07-06T15:59:27.175Z,26.22
2018-07-06T16:01:56.860Z,26.82
2018-07-06T16:04:26.628Z,25.97
2018-07-06T16:06:56.288Z,25.08
2018-07-06T16:09:26.024Z,25.13
2018-07-06T16:11:55.739Z,25.28
2018-07-06T16:14:25.414Z,26.04
2018-07-06T16:16:55.048Z,25.57
2018-07-06T16:19:24.683Z,25.41
2018-07-06T16:21:54.702Z,25.24
2018-07-06T16:24:24.440Z,25.93
2018-07-06T16:26:54.305Z,25.64
2018-07-06T16:29:24.071Z,26.18
2018-07-06T16:31:53.750Z,26.08
2018-07-06T16:34:23.910Z,26.07
2018-07-06T16:36:54.176Z,26.22
2018-07-06T16:39:23.973Z,25.93
2018-07-06T16:41:53.792Z,27.13
2018-07-06T16:44:23.934Z,28.33
2018-07-06T16:46:53.678Z,27.92
2018-07-06T16:49:23.856Z,27.67
2018-07-06T16:51:53.764Z,27.61
2018-07-06T16:54:23.840Z,28.32
2018-07-06T16:56:53.758Z,28.70
2018-07-06T16:59:23.677Z,28.20
2018-07-06T17:01:53.900Z,28.17
2018-07-06T17:04:23.686Z,28.60
2018-07-06T17:06:53.361Z,28.17
2018-07-06T17:09:23.163Z,29.09
2018-07-06T17:11:53.042Z,28.02
2018-07-06T17:14:22.828Z,28.38
2018-07-06T17:16:52.424Z,29.00
2018-07-06T17:19:22.061Z,28.60
2018-07-06T17:21:51.635Z,28.92
2018-07-06T17:24:21.256Z,28.76
2018-07-06T17:26:50.934Z,28.63
2018-07-06T17:29:20.505Z,29.04
2018-07-06T17:31:50.212Z,28.62
2018-07-06T17:34:19.853Z,29.57
2018-07-06T17:36:49.583Z,30.26
2018-07-06T17:39:19.321Z,30.52
2018-07-06T17:41:49.237Z,29.97
2018-07-06T17:44:19.001Z,30.28
2018-07-06T17:46:48.577Z,30.23
2018-07-06T17:49:18.189Z,30.59
2018-07-06T17:51:47.916Z,31.16
2018-07-06T17:54:17.591Z,31.57
2018-07-06T17:56:47.238Z,30.75
2018-07-06T17:59:17.004Z,31.09
2018-07-06T18:01:46.602Z,30.63
2018-07-06T18:04:16.164Z,31.34
2018-07-06T18:06:45.879Z,31.07
2018-07-06T18:09:15.648Z,32.07
2018-07-06T18:11:45.226Z,31.17
2018-07-06T18:14:14.897Z,31.98
2018-07-06T18:16:44.526Z,31.76
2018-07-06T18:19:14.173Z,32.37
2018-07-06T18:21:43.926Z,32.67
2018-07-06T18:24:13.621Z,32.67
2018-07-06T18:26:43.151Z,31.50
2018-07-06T18:29:12.840Z,31.59
2018-07-06T18:31:42.557Z,31.79
2018-07-06T18:34:12.202Z,31.51
2018-07-06T18:36:42.169Z,31.51
2018-07-06T18:39:11.868Z,30.62
2018-07-06T18:41:41.501Z,31.43
2018-07-06T18:44:11.168Z,30.39
2018-07-06T18:46:40.808Z,30.28
2018-07-06T18:49:10.535Z,30.82
2018-07-06T18:51:40.186Z,30.74
2018-07-06T18:54:09.809Z,30.98
2018-07-06T18:56:39.443Z,30.24
2018-07-06T18:59:09.169Z,31.21
2018-07-06T19:01:38.822Z,30.34
2018-07-06T19:04:09.306Z,31.37
2018-07-06T19:06:38.946Z,30.76
2018-07-06T19:09:08.754Z,31.10
2018-07-06T19:11:38.397Z,31.28
2018-07-06T19:14:08.100Z,31.62
2018-07-06T19:16:37.883Z,32.04
2018-07-06T19:19:07.913Z,32.22
2018-07-06T19:21:37.875Z,31.83
2018-07-06T19:24:07.891Z,32.67
2018-07-06T19:26:38.079Z,32.72
2018-07-06T19:29:07.919Z,32.96
2018-07-06T19:31:37.866Z,32.54
2018-07-06T19:34:07.640Z,32.40
2018-07-06T19:36:38.722Z,32.76
2018-07-06T19:39:08.421Z,33.26
2018-07-06T19:41:38.308Z,33.64
2018-07-06T19:44:08.295Z,33.54
2018-07-06T19:46:38.369Z,32.82
2018-07-06T19:49:07.950Z,33.92
2018-07-06T19:51:38.072Z,33.01
2018-07-06T19:54:07.859Z,34.04
2018-07-06T19:56:37.803Z,33.27
2018-07-06T19:59:07.518Z,34.45
2018-07-06T20:01:37.483Z,34.20
2018-07-06T20:04:07.524Z,33.88
2018-07-06T20:06:37.372Z,34.53
2018-07-06T20:09:08.399Z,33.76
2018-07-06T20:11:38.321Z,35.20
2018-07-06T20:14:08.041Z,35.30
2018-07-06T20:16:38.045Z,35.28
2018-07-06T20:19:07.722Z,35.86
2018-07-06T20:21:37.359Z,35.51
2018-07-06T20:24:07.079Z,35.75
2018-07-06T20:26:36.885Z,35.27
2018-07-06T20:29:06.661Z,35.44
2018-07-06T20:31:36.301Z,36.03
2018-07-06T20:34:06.013Z,36.07
2018-07-06T20:36:35.915Z,35.63
2018-07-06T20:39:05.732Z,35.96
2018-07-06T20:41:35.432Z,36.33
2018-07-06T20:44:05.190Z,36.06
2018-07-06T20:46:34.906Z,35.40
2018-07-06T20:49:04.560Z,36.28
2018-07-06T20:51:34.180Z,35.53
2018-07-06T20:54:03.918Z,35.89
2018-07-06T20:56:33.705Z,35.86
2018-07-06T20:59:03.465Z,36.73
2018-07-06T21:01:33.214Z,35.85
2018-07-06T21:04:03.029Z,35.70
2018-07-06T21:06:32.777Z,35.70
2018-07-06T21:09:02.563Z,35.59
2018-07-06T21:11:32.286Z,36.39
2018-07-06T21:14:02.234Z,35.61
2018-07-06T21:16:31.991Z,36.60
2018-07-06T21:19:01.729Z,36.80
2018-07-06T21:21:31.384Z,36.41
2018-07-06T21:24:01.033Z,35.43
2018-07-06T21:26:30.672Z,35.91
2018-07-06T21:29:00.280Z,36.76
2018-07-06T21:31:29.994Z,36.15
2018-07-06T21:33:59.767Z,35.95
2018-07-06T21:36:29.526Z,37.11
2018-07-06T21:38:59.269Z,36.71
2018-07-06T21:41:29.106Z,36.63
2018-07-06T21:43:59.028Z,36.61
2018-07-06T21:46:28.813Z,36.51
2018-07-06T21:48:58.528Z,36.73
2018-07-06T21:51:28.281Z,37.00
2018-07-06T21:53:58.148Z,36.14
2018-07-06T21:56:27.901Z,35.80
2018-07-06T21:58:57.870Z,36.16
2018-07-06T22:01:27.578Z,35.50
2018-07-06T22:03:57.281Z,36.16
2018-07-06T22:06:27.849Z,34.76
2018-07-06T22:08:57.559Z,34.76
2018-07-06T22:11:27.281Z,35.17
2018-07-06T22:13:57.015Z,34.23
2018-07-06T22:16:27.264Z,34.71
2018-07-06T22:18:57.037Z,35.12
2018-07-06T22:21:26.669Z,35.44
2018-07-06T22:23:56.304Z,35.39
2018-07-06T22:26:25.948Z,35.66
2018-07-06T22:28:55.583Z,35.25
2018-07-06T22:31:25.294Z,35.99
2018-07-06T22:33:54.941Z,35.50
2018-07-06T22:36:24.752Z,36.17
2018-07-06T22:38:54.344Z,36.90
2018-07-06T22:41:24.042Z,36.88
2018-07-06T22:43:53.783Z,36.39
2018-07-06T22:46:23.453Z,36.54
2018-07-06T22:48:53.177Z,36.04
2018-07-06T22:51:22.839Z,37.26
2018-07-06T22:53:52.543Z,37.60
2018-07-06T22:56:22.181Z,38.00
2018-07-06T22:58:51.915Z,38.05
2018-07-06T23:01:21.520Z,37.99
2018-07-06T23:03:51.402Z,37.93
2018-07-06T23:06:21.292Z,38.82
2018-07-06T23:08:51.123Z,38.72
2018-07-06T23:11:20.831Z,39.11
2018-07-06T23:13:50.467Z,39.62
2018-07-06T23:16:20.156Z,39.81
2018-07-06T23:18:49.876Z,40.71
2018-07-06T23:21:19.571Z,40.49
2018-07-06T23:23:49.312Z,40.69
2018-07-06T23:26:19.022Z,41.93
2018-07-06T23:28:48.887Z,42.12
2018-07-06T23:31:18.536Z,42.34
2018-07-06T23:33:48.284Z,42.69
2018-07-06T23:36:18.129Z,43.24
2018-07-06T23:38:47.898Z,43.37
2018-07-06T23:41:17.694Z,42.69
2018-07-06T23:43:47.371Z,42.97
2018-07-06T23:46:17.184Z,43.67
2018-07-06T23:48:46.976Z,43.11
2018-07-06T23:51:16.662Z,43.77
2018-07-06T23:53:46.332Z,43.65
2018-07-06T23:56:19.316Z,43.86
2018-07-06T23:58:49.047Z,44.87
